sensor_id;sensor_type;location;lat;lon;timestamp;pressure;altitude;pressure_sealevel;temperature;humidity
71889;BME280;59762;49.998;14.858;2023-12-20T00:01:24;96808.72;;;5.77;100.00
71889;BME280;59762;49.998;14.858;2023-12-20T00:03:50;96810.69;;;5.75;100.00
71889;BME280;59762;49.998;14.858;2023-12-20T00:06:15;96813.53;;;5.55;100.00
71889;BME280;59762;49.998;14.858;2023-12-20T00:08:41;96816.47;;;5.42;100.00
71889;BME280;59762;49.998;14.858;2023-12-20T00:11:07;96803.94;;;5.35;100.00
71889;BME280;59762;49.998;14.858;2023-12-20T00:13:32;96808.56;;;5.33;100.00
71889;BME280;59762;49.998;14.858;2023-12-20T00:15:58;96802.56;;;5.31;100.00
71889;BME280;59762;49.998;14.858;2023-12-20T00:18:24;96812.19;;;5.22;100.00
71889;BME280;59762;49.998;14.858;2023-12-20T00:20:49;96806.47;;;5.17;100.00
71889;BME280;59762;49.998;14.858;2023-12-20T00:23:15;96797.28;;;5.21;100.00
71889;BME280;59762;49.998;14.858;2023-12-20T00:25:41;96791.41;;;5.18;100.00
71889;BME280;59762;49.998;14.858;2023-12-20T00:28:06;96800.06;;;5.10;100.00
71889;BME280;59762;49.998;14.858;2023-12-20T00:30:32;96807.72;;;5.13;100.00
71889;BME280;59762;49.998;14.858;2023-12-20T00:32:57;96803.16;;;5.06;100.00
71889;BME280;59762;49.998;14.858;2023-12-20T00:35:23;96803.84;;;5.17;100.00
71889;BME280;59762;49.998;14.858;2023-12-20T00:37:49;96791.16;;;5.11;100.00
71889;BME280;59762;49.998;14.858;2023-12-20T00:40:15;96806.34;;;5.09;100.00
71889;BME280;59762;49.998;14.858;2023-12-20T00:42:41;96803.41;;;5.12;100.00
71889;BME280;59762;49.998;14.858;2023-12-20T00:45:07;96798.81;;;5.14;100.00
71889;BME280;59762;49.998;14.858;2023-12-20T00:47:33;96796.03;;;5.06;100.00
71889;BME280;59762;49.998;14.858;2023-12-20T00:49:58;96784.19;;;5.10;100.00
71889;BME280;59762;49.998;14.858;2023-12-20T00:52:24;96788.34;;;5.03;100.00
71889;BME280;59762;49.998;14.858;2023-12-20T00:54:50;96792.41;;;4.98;100.00
71889;BME280;59762;49.998;14.858;2023-12-20T00:57:16;96793.94;;;5.00;100.00
71889;BME280;59762;49.998;14.858;2023-12-20T00:59:42;96792.81;;;4.93;100.00
71889;BME280;59762;49.998;14.858;2023-12-20T01:02:07;96788.66;;;4.91;100.00
71889;BME280;59762;49.998;14.858;2023-12-20T01:04:34;96787.66;;;4.92;100.00
71889;BME280;59762;49.998;14.858;2023-12-20T01:07:00;96772.09;;;4.89;100.00
71889;BME280;59762;49.998;14.858;2023-12-20T01:09:26;96794.63;;;4.83;100.00
71889;BME280;59762;49.998;14.858;2023-12-20T01:11:55;96781.41;;;4.74;100.00
71889;BME280;59762;49.998;14.858;2023-12-20T01:14:20;96770.41;;;4.69;100.00
71889;BME280;59762;49.998;14.858;2023-12-20T01:16:46;96769.28;;;4.71;100.00
71889;BME280;59762;49.998;14.858;2023-12-20T01:19:13;96761.19;;;4.63;100.00
71889;BME280;59762;49.998;14.858;2023-12-20T01:21:39;96739.22;;;4.53;100.00
71889;BME280;59762;49.998;14.858;2023-12-20T01:24:05;96751.00;;;4.40;100.00
71889;BME280;59762;49.998;14.858;2023-12-20T01:26:31;96757.44;;;4.47;100.00
71889;BME280;59762;49.998;14.858;2023-12-20T01:28:57;96747.84;;;4.46;100.00
71889;BME280;59762;49.998;14.858;2023-12-20T01:31:23;96745.19;;;4.46;100.00
71889;BME280;59762;49.998;14.858;2023-12-20T01:33:49;96742.94;;;4.41;100.00
71889;BME280;59762;49.998;14.858;2023-12-20T01:36:14;96743.09;;;4.40;100.00
71889;BME280;59762;49.998;14.858;2023-12-20T01:38:40;96734.19;;;4.50;100.00
71889;BME280;59762;49.998;14.858;2023-12-20T01:41:06;96733.34;;;4.40;100.00
71889;BME280;59762;49.998;14.858;2023-12-20T01:43:31;96719.84;;;4.34;100.00
71889;BME280;59762;49.998;14.858;2023-12-20T01:45:57;96721.53;;;4.35;100.00
71889;BME280;59762;49.998;14.858;2023-12-20T01:48:25;96718.63;;;4.38;100.00
71889;BME280;59762;49.998;14.858;2023-12-20T01:50:51;96712.78;;;4.34;100.00
71889;BME280;59762;49.998;14.858;2023-12-20T01:53:19;96707.50;;;4.34;100.00
71889;BME280;59762;49.998;14.858;2023-12-20T01:55:47;96707.03;;;4.29;100.00
71889;BME280;59762;49.998;14.858;2023-12-20T01:58:14;96703.75;;;4.37;100.00
71889;BME280;59762;49.998;14.858;2023-12-20T02:00:41;96693.44;;;4.34;100.00
71889;BME280;59762;49.998;14.858;2023-12-20T02:03:07;96697.88;;;4.24;100.00
71889;BME280;59762;49.998;14.858;2023-12-20T02:05:34;96690.66;;;4.35;100.00
71889;BME280;59762;49.998;14.858;2023-12-20T02:08:00;96693.81;;;4.29;100.00
71889;BME280;59762;49.998;14.858;2023-12-20T02:10:27;96694.28;;;4.34;100.00
71889;BME280;59762;49.998;14.858;2023-12-20T02:12:52;96697.59;;;4.27;100.00
71889;BME280;59762;49.998;14.858;2023-12-20T02:15:18;96703.84;;;4.26;100.00
71889;BME280;59762;49.998;14.858;2023-12-20T02:17:45;96698.84;;;4.32;100.00
71889;BME280;59762;49.998;14.858;2023-12-20T02:20:11;96695.53;;;4.30;100.00
71889;BME280;59762;49.998;14.858;2023-12-20T02:22:37;96687.00;;;4.27;100.00
71889;BME280;59762;49.998;14.858;2023-12-20T02:25:03;96696.22;;;4.32;100.00
71889;BME280;59762;49.998;14.858;2023-12-20T02:27:29;96683.84;;;4.33;100.00
71889;BME280;59762;49.998;14.858;2023-12-20T02:29:56;96691.34;;;4.28;100.00
71889;BME280;59762;49.998;14.858;2023-12-20T02:32:22;96681.59;;;4.28;100.00
71889;BME280;59762;49.998;14.858;2023-12-20T02:34:51;96685.47;;;4.24;100.00
71889;BME280;59762;49.998;14.858;2023-12-20T02:37:17;96680.91;;;4.26;100.00
71889;BME280;59762;49.998;14.858;2023-12-20T02:39:43;96682.03;;;4.24;100.00
71889;BME280;59762;49.998;14.858;2023-12-20T02:42:08;96666.47;;;4.30;100.00
71889;BME280;59762;49.998;14.858;2023-12-20T02:44:34;96677.28;;;4.27;100.00
71889;BME280;59762;49.998;14.858;2023-12-20T02:47:00;96668.38;;;4.28;100.00
71889;BME280;59762;49.998;14.858;2023-12-20T02:49:25;96680.09;;;4.35;100.00
71889;BME280;59762;49.998;14.858;2023-12-20T02:51:51;96682.31;;;4.30;100.00
71889;BME280;59762;49.998;14.858;2023-12-20T02:54:16;96686.47;;;4.42;100.00
71889;BME280;59762;49.998;14.858;2023-12-20T02:56:42;96686.06;;;4.37;100.00
71889;BME280;59762;49.998;14.858;2023-12-20T02:59:08;96692.44;;;4.35;100.00
71889;BME280;59762;49.998;14.858;2023-12-20T03:01:34;96693.28;;;4.35;100.00
71889;BME280;59762;49.998;14.858;2023-12-20T03:04:01;96689.25;;;4.31;100.00
71889;BME280;59762;49.998;14.858;2023-12-20T03:06:26;96686.63;;;4.31;100.00
71889;BME280;59762;49.998;14.858;2023-12-20T03:08:52;96685.22;;;4.27;100.00
71889;BME280;59762;49.998;14.858;2023-12-20T03:11:17;96684.38;;;4.27;100.00
71889;BME280;59762;49.998;14.858;2023-12-20T03:13:43;96690.50;;;4.27;100.00
71889;BME280;59762;49.998;14.858;2023-12-20T03:16:10;96694.13;;;4.26;100.00
71889;BME280;59762;49.998;14.858;2023-12-20T03:18:36;96692.16;;;4.19;100.00
71889;BME280;59762;49.998;14.858;2023-12-20T03:21:02;96687.44;;;4.32;100.00
71889;BME280;59762;49.998;14.858;2023-12-20T03:23:29;96695.63;;;4.19;100.00
71889;BME280;59762;49.998;14.858;2023-12-20T03:25:56;96691.19;;;4.20;100.00
71889;BME280;59762;49.998;14.858;2023-12-20T03:28:22;96694.09;;;4.17;100.00
71889;BME280;59762;49.998;14.858;2023-12-20T03:30:48;96681.00;;;4.06;100.00
71889;BME280;59762;49.998;14.858;2023-12-20T03:33:14;96694.38;;;4.14;100.00
71889;BME280;59762;49.998;14.858;2023-12-20T03:35:40;96695.47;;;4.11;100.00
71889;BME280;59762;49.998;14.858;2023-12-20T03:38:05;96687.00;;;4.08;100.00
71889;BME280;59762;49.998;14.858;2023-12-20T03:40:31;96687.13;;;4.06;100.00
71889;BME280;59762;49.998;14.858;2023-12-20T03:42:57;96681.59;;;4.09;100.00
71889;BME280;59762;49.998;14.858;2023-12-20T03:45:22;96686.28;;;4.06;100.00
71889;BME280;59762;49.998;14.858;2023-12-20T03:47:48;96684.50;;;4.06;100.00
71889;BME280;59762;49.998;14.858;2023-12-20T03:50:15;96687.81;;;3.99;100.00
71889;BME280;59762;49.998;14.858;2023-12-20T03:52:41;96684.19;;;4.00;100.00
71889;BME280;59762;49.998;14.858;2023-12-20T03:55:06;96682.78;;;3.96;100.00
71889;BME280;59762;49.998;14.858;2023-12-20T03:57:32;96679.88;;;3.99;100.00
71889;BME280;59762;49.998;14.858;2023-12-20T03:59:58;96681.56;;;4.00;100.00
71889;BME280;59762;49.998;14.858;2023-12-20T04:02:23;96682.09;;;3.94;100.00
71889;BME280;59762;49.998;14.858;2023-12-20T04:04:49;96685.56;;;3.94;100.00
71889;BME280;59762;49.998;14.858;2023-12-20T04:07:15;96684.19;;;4.00;100.00
71889;BME280;59762;49.998;14.858;2023-12-20T04:09:41;96679.03;;;3.98;100.00
71889;BME280;59762;49.998;14.858;2023-12-20T04:12:07;96671.53;;;3.94;100.00
71889;BME280;59762;49.998;14.858;2023-12-20T04:14:32;96684.47;;;3.87;100.00
71889;BME280;59762;49.998;14.858;2023-12-20T04:16:58;96687.66;;;3.91;100.00
71889;BME280;59762;49.998;14.858;2023-12-20T04:19:24;96676.66;;;3.86;100.00
71889;BME280;59762;49.998;14.858;2023-12-20T04:21:50;96681.69;;;3.89;100.00
71889;BME280;59762;49.998;14.858;2023-12-20T04:24:15;96671.50;;;3.84;100.00
71889;BME280;59762;49.998;14.858;2023-12-20T04:26:41;96679.00;;;3.79;100.00
71889;BME280;59762;49.998;14.858;2023-12-20T04:29:07;96684.16;;;3.81;100.00
71889;BME280;59762;49.998;14.858;2023-12-20T04:31:33;96682.22;;;3.83;100.00
71889;BME280;59762;49.998;14.858;2023-12-20T04:33:59;96688.84;;;3.77;100.00
71889;BME280;59762;49.998;14.858;2023-12-20T04:36:24;96687.59;;;3.72;100.00
71889;BME280;59762;49.998;14.858;2023-12-20T04:38:53;96696.09;;;3.75;100.00
71889;BME280;59762;49.998;14.858;2023-12-20T04:41:19;96685.94;;;3.80;100.00
71889;BME280;59762;49.998;14.858;2023-12-20T04:43:44;96685.91;;;3.71;100.00
71889;BME280;59762;49.998;14.858;2023-12-20T04:46:10;96689.00;;;3.76;100.00
71889;BME280;59762;49.998;14.858;2023-12-20T04:48:36;96685.47;;;3.66;100.00
71889;BME280;59762;49.998;14.858;2023-12-20T04:51:02;96681.75;;;3.68;100.00
71889;BME280;59762;49.998;14.858;2023-12-20T04:53:28;96688.53;;;3.61;100.00
71889;BME280;59762;49.998;14.858;2023-12-20T04:55:53;96691.06;;;3.63;100.00
71889;BME280;59762;49.998;14.858;2023-12-20T04:58:19;96686.41;;;3.55;100.00
71889;BME280;59762;49.998;14.858;2023-12-20T05:00:45;96686.28;;;3.57;100.00
71889;BME280;59762;49.998;14.858;2023-12-20T05:03:10;96679.34;;;3.56;100.00
71889;BME280;59762;49.998;14.858;2023-12-20T05:05:37;96680.63;;;3.61;100.00
71889;BME280;59762;49.998;14.858;2023-12-20T05:08:03;96688.13;;;3.66;100.00
71889;BME280;59762;49.998;14.858;2023-12-20T05:10:29;96681.56;;;3.60;100.00
71889;BME280;59762;49.998;14.858;2023-12-20T05:12:55;96678.63;;;3.54;100.00
71889;BME280;59762;49.998;14.858;2023-12-20T05:15:20;96682.25;;;3.53;100.00
71889;BME280;59762;49.998;14.858;2023-12-20T05:17:46;96678.78;;;3.52;100.00
71889;BME280;59762;49.998;14.858;2023-12-20T05:20:12;96687.53;;;3.53;100.00
71889;BME280;59762;49.998;14.858;2023-12-20T05:22:37;96688.25;;;3.64;100.00
71889;BME280;59762;49.998;14.858;2023-12-20T05:25:04;96684.88;;;3.53;100.00
71889;BME280;59762;49.998;14.858;2023-12-20T05:27:30;96687.66;;;3.51;100.00
71889;BME280;59762;49.998;14.858;2023-12-20T05:29:55;96690.28;;;3.51;100.00
71889;BME280;59762;49.998;14.858;2023-12-20T05:32:23;96686.84;;;3.51;100.00
71889;BME280;59762;49.998;14.858;2023-12-20T05:34:49;96692.38;;;3.48;100.00
71889;BME280;59762;49.998;14.858;2023-12-20T05:37:14;96691.38;;;3.49;100.00
71889;BME280;59762;49.998;14.858;2023-12-20T05:39:40;96691.69;;;3.46;100.00
71889;BME280;59762;49.998;14.858;2023-12-20T05:42:06;96698.38;;;3.50;100.00
71889;BME280;59762;49.998;14.858;2023-12-20T05:44:32;96696.97;;;3.46;100.00
71889;BME280;59762;49.998;14.858;2023-12-20T05:46:57;96692.78;;;3.43;100.00
71889;BME280;59762;49.998;14.858;2023-12-20T05:49:23;96698.56;;;3.37;100.00
71889;BME280;59762;49.998;14.858;2023-12-20T05:51:48;96694.13;;;3.38;100.00
71889;BME280;59762;49.998;14.858;2023-12-20T05:54:16;96679.53;;;3.34;100.00
71889;BME280;59762;49.998;14.858;2023-12-20T05:56:41;96688.84;;;3.38;100.00
71889;BME280;59762;49.998;14.858;2023-12-20T05:59:07;96690.09;;;3.34;100.00
71889;BME280;59762;49.998;14.858;2023-12-20T06:01:32;96689.38;;;3.32;100.00
71889;BME280;59762;49.998;14.858;2023-12-20T06:03:58;96699.22;;;3.30;100.00
71889;BME280;59762;49.998;14.858;2023-12-20T06:06:24;96690.59;;;3.28;100.00
71889;BME280;59762;49.998;14.858;2023-12-20T06:08:49;96689.66;;;3.29;100.00
71889;BME280;59762;49.998;14.858;2023-12-20T06:11:15;96687.00;;;3.29;100.00
71889;BME280;59762;49.998;14.858;2023-12-20T06:13:41;96698.38;;;3.29;100.00
71889;BME280;59762;49.998;14.858;2023-12-20T06:16:07;96699.22;;;3.30;100.00
71889;BME280;59762;49.998;14.858;2023-12-20T06:18:33;96691.00;;;3.23;100.00
71889;BME280;59762;49.998;14.858;2023-12-20T06:20:58;96693.66;;;3.23;100.00
71889;BME280;59762;49.998;14.858;2023-12-20T06:23:24;96695.31;;;3.24;100.00
71889;BME280;59762;49.998;14.858;2023-12-20T06:25:49;96695.72;;;3.20;100.00
71889;BME280;59762;49.998;14.858;2023-12-20T06:28:15;96704.84;;;3.16;100.00
71889;BME280;59762;49.998;14.858;2023-12-20T06:30:41;96700.28;;;3.18;100.00
71889;BME280;59762;49.998;14.858;2023-12-20T06:33:06;96697.63;;;3.18;100.00
71889;BME280;59762;49.998;14.858;2023-12-20T06:35:32;96701.94;;;3.19;100.00
71889;BME280;59762;49.998;14.858;2023-12-20T06:37:58;96710.38;;;3.13;100.00
71889;BME280;59762;49.998;14.858;2023-12-20T06:40:23;96706.78;;;3.14;100.00
71889;BME280;59762;49.998;14.858;2023-12-20T06:42:49;96709.22;;;3.06;100.00
71889;BME280;59762;49.998;14.858;2023-12-20T06:45:15;96700.06;;;3.10;100.00
71889;BME280;59762;49.998;14.858;2023-12-20T06:47:41;96712.13;;;3.03;100.00
71889;BME280;59762;49.998;14.858;2023-12-20T06:50:06;96715.91;;;3.10;100.00
71889;BME280;59762;49.998;14.858;2023-12-20T06:52:34;96714.38;;;3.07;100.00
71889;BME280;59762;49.998;14.858;2023-12-20T06:55:00;96710.59;;;3.00;100.00
71889;BME280;59762;49.998;14.858;2023-12-20T06:57:26;96719.75;;;3.06;100.00
71889;BME280;59762;49.998;14.858;2023-12-20T06:59:53;96717.00;;;3.07;100.00
71889;BME280;59762;49.998;14.858;2023-12-20T07:02:19;96727.44;;;3.09;100.00
71889;BME280;59762;49.998;14.858;2023-12-20T07:04:44;96732.13;;;3.05;100.00
71889;BME280;59762;49.998;14.858;2023-12-20T07:07:10;96739.91;;;3.07;100.00
71889;BME280;59762;49.998;14.858;2023-12-20T07:09:36;96749.75;;;3.05;100.00
71889;BME280;59762;49.998;14.858;2023-12-20T07:12:02;96747.97;;;3.05;100.00
71889;BME280;59762;49.998;14.858;2023-12-20T07:14:27;96766.28;;;3.07;100.00
71889;BME280;59762;49.998;14.858;2023-12-20T07:16:53;96768.78;;;3.08;100.00
71889;BME280;59762;49.998;14.858;2023-12-20T07:19:19;96768.94;;;3.07;100.00
71889;BME280;59762;49.998;14.858;2023-12-20T07:21:45;96770.97;;;3.03;100.00
71889;BME280;59762;49.998;14.858;2023-12-20T07:24:10;96774.31;;;3.05;100.00
71889;BME280;59762;49.998;14.858;2023-12-20T07:26:36;96787.50;;;3.05;100.00
71889;BME280;59762;49.998;14.858;2023-12-20T07:29:03;96785.13;;;3.02;100.00
71889;BME280;59762;49.998;14.858;2023-12-20T07:31:29;96783.66;;;3.09;100.00
71889;BME280;59762;49.998;14.858;2023-12-20T07:33:56;96797.34;;;3.03;100.00
71889;BME280;59762;49.998;14.858;2023-12-20T07:36:21;96784.78;;;2.96;100.00
71889;BME280;59762;49.998;14.858;2023-12-20T07:38:47;96790.28;;;3.04;100.00
71889;BME280;59762;49.998;14.858;2023-12-20T07:41:13;96798.44;;;3.01;100.00
71889;BME280;59762;49.998;14.858;2023-12-20T07:43:38;96800.94;;;3.02;100.00
71889;BME280;59762;49.998;14.858;2023-12-20T07:46:08;96803.00;;;2.99;100.00
71889;BME280;59762;49.998;14.858;2023-12-20T07:48:37;96808.00;;;3.02;100.00
71889;BME280;59762;49.998;14.858;2023-12-20T07:51:03;96809.72;;;3.03;100.00
71889;BME280;59762;49.998;14.858;2023-12-20T07:53:29;96815.09;;;3.01;100.00
71889;BME280;59762;49.998;14.858;2023-12-20T07:55:55;96814.47;;;3.09;100.00
71889;BME280;59762;49.998;14.858;2023-12-20T07:58:21;96813.63;;;3.08;100.00
71889;BME280;59762;49.998;14.858;2023-12-20T08:00:47;96828.50;;;3.09;100.00
71889;BME280;59762;49.998;14.858;2023-12-20T08:03:13;96819.69;;;3.20;100.00
71889;BME280;59762;49.998;14.858;2023-12-20T08:05:39;96825.09;;;3.18;100.00
71889;BME280;59762;49.998;14.858;2023-12-20T08:08:07;96827.84;;;3.17;100.00
71889;BME280;59762;49.998;14.858;2023-12-20T08:10:33;96826.06;;;3.17;100.00
71889;BME280;59762;49.998;14.858;2023-12-20T08:12:59;96823.03;;;3.22;100.00
71889;BME280;59762;49.998;14.858;2023-12-20T08:15:24;96822.34;;;3.20;100.00
71889;BME280;59762;49.998;14.858;2023-12-20T08:17:50;96827.34;;;3.23;100.00
71889;BME280;59762;49.998;14.858;2023-12-20T08:20:19;96826.41;;;3.24;100.00
71889;BME280;59762;49.998;14.858;2023-12-20T08:22:44;96828.19;;;3.23;100.00
71889;BME280;59762;49.998;14.858;2023-12-20T08:25:10;96816.84;;;3.32;100.00
71889;BME280;59762;49.998;14.858;2023-12-20T08:27:41;96826.19;;;3.36;100.00
71889;BME280;59762;49.998;14.858;2023-12-20T08:30:10;96820.91;;;3.36;100.00
71889;BME280;59762;49.998;14.858;2023-12-20T08:32:36;96817.75;;;3.42;100.00
71889;BME280;59762;49.998;14.858;2023-12-20T08:35:02;96817.25;;;3.48;100.00
71889;BME280;59762;49.998;14.858;2023-12-20T08:37:28;96822.22;;;3.42;100.00
71889;BME280;59762;49.998;14.858;2023-12-20T08:39:55;96827.16;;;3.56;100.00
71889;BME280;59762;49.998;14.858;2023-12-20T08:42:21;96832.81;;;3.51;100.00
71889;BME280;59762;49.998;14.858;2023-12-20T08:44:47;96835.44;;;3.51;100.00
71889;BME280;59762;49.998;14.858;2023-12-20T08:47:12;96834.81;;;3.59;100.00
71889;BME280;59762;49.998;14.858;2023-12-20T08:49:41;96840.78;;;3.61;100.00
71889;BME280;59762;49.998;14.858;2023-12-20T08:52:07;96830.81;;;3.64;100.00
71889;BME280;59762;49.998;14.858;2023-12-20T08:54:32;96838.59;;;3.66;100.00
71889;BME280;59762;49.998;14.858;2023-12-20T08:56:58;96840.75;;;3.81;100.00
71889;BME280;59762;49.998;14.858;2023-12-20T08:59:24;96839.44;;;3.66;100.00
71889;BME280;59762;49.998;14.858;2023-12-20T09:01:49;96841.97;;;3.68;100.00
71889;BME280;59762;49.998;14.858;2023-12-20T09:04:20;96839.88;;;3.71;100.00
71889;BME280;59762;49.998;14.858;2023-12-20T09:06:45;96844.59;;;3.68;100.00
71889;BME280;59762;49.998;14.858;2023-12-20T09:09:11;96842.91;;;3.67;100.00
71889;BME280;59762;49.998;14.858;2023-12-20T09:11:39;96846.63;;;3.64;100.00
71889;BME280;59762;49.998;14.858;2023-12-20T09:14:04;96850.50;;;3.60;100.00
71889;BME280;59762;49.998;14.858;2023-12-20T09:16:30;96832.75;;;3.62;100.00
71889;BME280;59762;49.998;14.858;2023-12-20T09:18:57;96842.34;;;3.63;100.00
71889;BME280;59762;49.998;14.858;2023-12-20T09:21:23;96834.16;;;3.66;100.00
71889;BME280;59762;49.998;14.858;2023-12-20T09:23:49;96833.19;;;3.67;100.00
71889;BME280;59762;49.998;14.858;2023-12-20T09:26:15;96833.63;;;3.72;100.00
71889;BME280;59762;49.998;14.858;2023-12-20T09:28:40;96836.88;;;3.76;100.00
71889;BME280;59762;49.998;14.858;2023-12-20T09:31:06;96831.72;;;3.74;100.00
71889;BME280;59762;49.998;14.858;2023-12-20T09:33:33;96825.34;;;3.86;100.00
71889;BME280;59762;49.998;14.858;2023-12-20T09:35:58;96823.44;;;3.88;100.00
71889;BME280;59762;49.998;14.858;2023-12-20T09:38:24;96819.75;;;3.80;100.00
71889;BME280;59762;49.998;14.858;2023-12-20T09:40:50;96814.28;;;3.92;100.00
71889;BME280;59762;49.998;14.858;2023-12-20T09:43:19;96835.47;;;4.02;100.00
71889;BME280;59762;49.998;14.858;2023-12-20T09:45:46;96821.78;;;3.97;100.00
71889;BME280;59762;49.998;14.858;2023-12-20T09:48:13;96826.94;;;3.98;100.00
71889;BME280;59762;49.998;14.858;2023-12-20T09:50:40;96838.13;;;4.11;100.00
71889;BME280;59762;49.998;14.858;2023-12-20T09:53:08;96826.59;;;4.12;100.00
71889;BME280;59762;49.998;14.858;2023-12-20T09:55:36;96829.38;;;4.11;100.00
71889;BME280;59762;49.998;14.858;2023-12-20T09:58:02;96829.78;;;4.06;100.00
71889;BME280;59762;49.998;14.858;2023-12-20T10:00:28;96833.28;;;4.16;100.00
71889;BME280;59762;49.998;14.858;2023-12-20T10:02:58;96823.69;;;4.15;100.00
71889;BME280;59762;49.998;14.858;2023-12-20T10:05:31;96821.59;;;4.19;100.00
71889;BME280;59762;49.998;14.858;2023-12-20T10:07:58;96822.44;;;4.19;100.00
71889;BME280;59762;49.998;14.858;2023-12-20T10:10:24;96823.59;;;4.26;100.00
71889;BME280;59762;49.998;14.858;2023-12-20T10:13:06;96831.53;;;4.26;100.00
71889;BME280;59762;49.998;14.858;2023-12-20T10:15:36;96825.81;;;4.31;100.00
71889;BME280;59762;49.998;14.858;2023-12-20T10:18:03;96827.91;;;4.27;100.00
71889;BME280;59762;49.998;14.858;2023-12-20T10:20:30;96829.03;;;4.25;100.00
71889;BME280;59762;49.998;14.858;2023-12-20T10:22:59;96828.03;;;4.26;100.00
71889;BME280;59762;49.998;14.858;2023-12-20T10:25:26;96825.75;;;4.51;100.00
71889;BME280;59762;49.998;14.858;2023-12-20T10:30:36;96819.34;;;4.44;100.00
71889;BME280;59762;49.998;14.858;2023-12-20T10:33:02;96814.63;;;4.57;100.00
71889;BME280;59762;49.998;14.858;2023-12-20T10:35:28;96814.91;;;4.54;100.00
71889;BME280;59762;49.998;14.858;2023-12-20T10:37:56;96815.31;;;4.50;100.00
71889;BME280;59762;49.998;14.858;2023-12-20T10:40:22;96815.84;;;4.44;100.00
71889;BME280;59762;49.998;14.858;2023-12-20T10:42:49;96815.75;;;4.55;100.00
71889;BME280;59762;49.998;14.858;2023-12-20T10:45:16;96811.16;;;4.57;100.00
71889;BME280;59762;49.998;14.858;2023-12-20T10:47:46;96810.84;;;4.50;100.00
71889;BME280;59762;49.998;14.858;2023-12-20T10:50:12;96814.19;;;4.43;100.00
71889;BME280;59762;49.998;14.858;2023-12-20T10:52:40;96815.84;;;4.44;100.00
71889;BME280;59762;49.998;14.858;2023-12-20T10:55:06;96818.19;;;4.37;100.00
71889;BME280;59762;49.998;14.858;2023-12-20T10:57:32;96810.81;;;4.31;100.00
71889;BME280;59762;49.998;14.858;2023-12-20T11:00:01;96799.09;;;4.24;100.00
71889;BME280;59762;49.998;14.858;2023-12-20T11:02:32;96800.50;;;4.28;100.00
71889;BME280;59762;49.998;14.858;2023-12-20T11:07:57;96782.06;;;4.47;100.00
71889;BME280;59762;49.998;14.858;2023-12-20T11:10:31;96782.34;;;4.44;100.00
71889;BME280;59762;49.998;14.858;2023-12-20T11:15:36;96793.34;;;4.49;100.00
71889;BME280;59762;49.998;14.858;2023-12-20T11:18:04;96787.91;;;4.51;100.00
71889;BME280;59762;49.998;14.858;2023-12-20T11:20:40;96785.41;;;4.49;100.00
71889;BME280;59762;49.998;14.858;2023-12-20T11:23:06;96774.44;;;4.54;100.00
71889;BME280;59762;49.998;14.858;2023-12-20T11:28:13;96769.56;;;4.68;100.00
71889;BME280;59762;49.998;14.858;2023-12-20T11:30:52;96767.06;;;4.86;100.00
71889;BME280;59762;49.998;14.858;2023-12-20T11:33:26;96762.06;;;4.92;100.00
71889;BME280;59762;49.998;14.858;2023-12-20T11:35:55;96751.75;;;4.99;100.00
71889;BME280;59762;49.998;14.858;2023-12-20T11:38:21;96751.47;;;4.92;100.00
71889;BME280;59762;49.998;14.858;2023-12-20T11:40:50;96754.53;;;4.88;100.00
71889;BME280;59762;49.998;14.858;2023-12-20T11:43:32;96744.38;;;4.93;100.00
71889;BME280;59762;49.998;14.858;2023-12-20T11:46:09;96748.97;;;5.00;100.00
71889;BME280;59762;49.998;14.858;2023-12-20T11:48:39;96757.31;;;5.05;100.00
71889;BME280;59762;49.998;14.858;2023-12-20T11:51:12;96753.41;;;5.00;100.00
71889;BME280;59762;49.998;14.858;2023-12-20T11:53:39;96755.94;;;5.11;100.00
71889;BME280;59762;49.998;14.858;2023-12-20T11:56:06;96766.22;;;4.95;100.00
71889;BME280;59762;49.998;14.858;2023-12-20T11:58:33;96764.72;;;4.92;100.00
71889;BME280;59762;49.998;14.858;2023-12-20T12:00:59;96748.41;;;4.97;100.00
71889;BME280;59762;49.998;14.858;2023-12-20T12:03:25;96755.78;;;4.84;100.00
71889;BME280;59762;49.998;14.858;2023-12-20T12:05:51;96753.44;;;4.81;100.00
71889;BME280;59762;49.998;14.858;2023-12-20T12:08:17;96762.91;;;4.83;100.00
71889;BME280;59762;49.998;14.858;2023-12-20T12:10:45;96750.66;;;4.82;100.00
71889;BME280;59762;49.998;14.858;2023-12-20T12:13:11;96750.78;;;4.81;100.00
71889;BME280;59762;49.998;14.858;2023-12-20T12:15:37;96742.16;;;4.60;100.00
71889;BME280;59762;49.998;14.858;2023-12-20T12:18:03;96745.34;;;4.54;100.00
71889;BME280;59762;49.998;14.858;2023-12-20T12:20:30;96745.47;;;4.43;100.00
71889;BME280;59762;49.998;14.858;2023-12-20T12:23:04;96750.88;;;4.41;100.00
71889;BME280;59762;49.998;14.858;2023-12-20T12:25:31;96742.50;;;4.27;100.00
71889;BME280;59762;49.998;14.858;2023-12-20T12:27:59;96742.25;;;4.30;100.00
71889;BME280;59762;49.998;14.858;2023-12-20T12:30:25;96743.91;;;4.31;100.00
71889;BME280;59762;49.998;14.858;2023-12-20T12:32:52;96738.66;;;4.40;100.00
71889;BME280;59762;49.998;14.858;2023-12-20T12:35:18;96740.75;;;4.37;100.00
71889;BME280;59762;49.998;14.858;2023-12-20T12:37:44;96736.69;;;4.42;100.00
71889;BME280;59762;49.998;14.858;2023-12-20T12:40:11;96734.59;;;4.36;100.00
71889;BME280;59762;49.998;14.858;2023-12-20T12:42:37;96733.91;;;4.34;100.00
71889;BME280;59762;49.998;14.858;2023-12-20T12:45:03;96722.06;;;4.38;100.00
71889;BME280;59762;49.998;14.858;2023-12-20T12:47:30;96721.38;;;4.36;100.00
71889;BME280;59762;49.998;14.858;2023-12-20T12:49:56;96716.13;;;4.46;100.00
71889;BME280;59762;49.998;14.858;2023-12-20T12:52:22;96723.22;;;4.45;100.00
71889;BME280;59762;49.998;14.858;2023-12-20T12:54:48;96717.66;;;4.48;100.00
71889;BME280;59762;49.998;14.858;2023-12-20T12:57:15;96724.75;;;4.57;100.00